Terminal Aerodrome Forecast
Issued by NWS

Home | Current Version | Previous Version | Text Only | Print | Product List | Glossary On
Versions: 1 2 3 4 5 6 7 8 9 10 11 12 13 14 15 16 17 18 19 20 21 22 23 24 25 26 27 28
000
FTUS44 KHGX 291120
TAFSGR
TAF
KSGR 291120Z 2912/3012 16005KT P6SM VCSH BKN035
     FM291500 12006KT P6SM VCSH SCT020
     FM291900 14010KT P6SM VCTS SCT030CB BKN250
     FM300100 12008KT P6SM FEW020 BKN250
     FM300600 12004KT P6SM VCSH BKN020=

USA.gov is the U.S. government's official web portal to all federal, state and local government web resources and services.